createdAt,value
2018-08-09T00:00:06.421Z,971.31
2018-08-09T00:01:06.426Z,971.28
2018-08-09T00:02:06.425Z,971.29
2018-08-09T00:03:06.418Z,971.32
2018-08-09T00:04:06.421Z,971.34
2018-08-09T00:05:06.419Z,971.41
2018-08-09T00:06:06.420Z,971.41
2018-08-09T00:07:06.415Z,971.44
2018-08-09T00:08:06.419Z,971.40
2018-08-09T00:09:06.412Z,971.44
2018-08-09T00:10:06.414Z,971.44
2018-08-09T00:11:06.413Z,971.46
2018-08-09T00:12:06.408Z,971.47
2018-08-09T00:13:06.416Z,971.45
2018-08-09T00:14:06.409Z,971.45
2018-08-09T00:15:06.410Z,971.45
2018-08-09T00:16:06.407Z,971.43
2018-08-09T00:17:06.406Z,971.43
2018-08-09T00:18:06.401Z,971.43
2018-08-09T00:19:06.405Z,971.37
2018-08-09T00:20:06.400Z,971.36
2018-08-09T00:21:06.397Z,971.33
2018-08-09T00:22:06.398Z,971.33
2018-08-09T00:23:06.399Z,971.32
2018-08-09T00:24:06.394Z,971.30
2018-08-09T00:25:06.390Z,971.34
2018-08-09T00:26:06.395Z,971.33
2018-08-09T00:27:06.392Z,971.31
2018-08-09T00:28:06.394Z,971.27
2018-08-09T00:29:06.391Z,971.29
2018-08-09T00:30:06.394Z,971.30
2018-08-09T00:31:06.388Z,971.23
2018-08-09T00:32:06.384Z,971.22
2018-08-09T00:33:06.384Z,971.19
2018-08-09T00:34:06.380Z,971.21
2018-08-09T00:35:06.379Z,971.15
2018-08-09T00:36:06.382Z,971.15
2018-08-09T00:37:06.375Z,971.22
2018-08-09T00:38:06.381Z,971.16
2018-08-09T00:39:06.375Z,971.10
2018-08-09T00:40:06.379Z,971.12
2018-08-09T00:41:06.382Z,971.09
2018-08-09T00:42:06.374Z,971.10
2018-08-09T00:43:06.380Z,971.10
2018-08-09T00:44:06.374Z,971.09
2018-08-09T00:45:06.369Z,971.09
2018-08-09T00:46:06.365Z,971.09
2018-08-09T00:47:06.364Z,971.10
2018-08-09T00:48:06.364Z,971.06
2018-08-09T00:49:06.367Z,971.08
2018-08-09T00:50:06.360Z,971.10
2018-08-09T00:51:06.359Z,971.11
2018-08-09T00:52:06.360Z,971.13
2018-08-09T00:53:06.355Z,971.14
2018-08-09T00:54:06.354Z,971.20
2018-08-09T00:55:06.354Z,971.21
2018-08-09T00:56:06.353Z,971.23
2018-08-09T00:57:06.348Z,971.25
2018-08-09T00:58:06.348Z,971.28
2018-08-09T00:59:06.353Z,971.34
2018-08-09T01:00:06.350Z,971.33
2018-08-09T01:01:06.347Z,971.39
2018-08-09T01:02:06.347Z,971.39
2018-08-09T01:03:06.344Z,971.39
2018-08-09T01:04:06.345Z,971.39
2018-08-09T01:05:06.340Z,971.41
2018-08-09T01:06:06.339Z,971.38
2018-08-09T01:07:06.338Z,971.37
2018-08-09T01:08:06.335Z,971.36
2018-08-09T01:09:06.338Z,971.38
2018-08-09T01:10:06.333Z,971.39
2018-08-09T01:11:06.331Z,971.40
2018-08-09T01:12:06.331Z,971.41
2018-08-09T01:13:06.327Z,971.38
2018-08-09T01:14:06.331Z,971.34
2018-08-09T01:15:06.329Z,971.29
2018-08-09T01:16:06.328Z,971.27
2018-08-09T01:17:06.321Z,971.20
2018-08-09T01:18:06.322Z,971.17
2018-08-09T01:19:06.321Z,971.16
2018-08-09T01:20:06.320Z,971.19
2018-08-09T01:21:06.317Z,971.20
2018-08-09T01:22:06.319Z,971.20
2018-08-09T01:23:06.315Z,971.21
2018-08-09T01:24:06.337Z,971.15
2018-08-09T01:25:06.341Z,971.16
2018-08-09T01:26:06.307Z,971.15
2018-08-09T01:27:06.308Z,971.13
2018-08-09T01:28:06.309Z,971.13
2018-08-09T01:29:06.303Z,971.12
2018-08-09T01:30:06.301Z,971.12
2018-08-09T01:31:06.303Z,971.13
2018-08-09T01:32:06.304Z,971.15
2018-08-09T01:33:06.302Z,971.17
2018-08-09T01:34:06.295Z,971.22
2018-08-09T01:35:06.298Z,971.24
2018-08-09T01:36:06.293Z,971.24
2018-08-09T01:37:06.290Z,971.23
2018-08-09T01:38:06.308Z,971.25
2018-08-09T01:39:06.289Z,971.23
2018-08-09T01:40:06.289Z,971.29
2018-08-09T01:41:06.286Z,971.30
2018-08-09T01:42:06.285Z,971.31
2018-08-09T01:43:06.281Z,971.34
2018-08-09T01:44:06.282Z,971.34
2018-08-09T01:45:06.280Z,971.36
2018-08-09T01:46:06.275Z,971.31
2018-08-09T01:47:06.272Z,971.30
2018-08-09T01:48:06.272Z,971.29
2018-08-09T01:49:06.270Z,971.27
2018-08-09T01:50:06.267Z,971.27
2018-08-09T01:51:06.266Z,971.25
2018-08-09T01:52:06.269Z,971.29
2018-08-09T01:53:06.262Z,971.25
2018-08-09T01:54:06.280Z,971.28
2018-08-09T01:55:06.261Z,971.31
2018-08-09T01:56:06.260Z,971.28
2018-08-09T01:57:06.258Z,971.32
2018-08-09T01:58:06.278Z,971.28
2018-08-09T01:59:06.281Z,971.26
2018-08-09T02:00:06.257Z,971.23
2018-08-09T02:01:06.252Z,971.24
2018-08-09T02:02:06.332Z,971.19
2018-08-09T02:03:06.244Z,971.15
2018-08-09T02:04:06.387Z,971.16
2018-08-09T02:05:06.355Z,971.13
2018-08-09T02:06:06.423Z,971.11
2018-08-09T02:07:06.242Z,971.12
2018-08-09T02:08:06.323Z,971.13
2018-08-09T02:09:06.241Z,971.12
2018-08-09T02:10:06.317Z,971.14
2018-08-09T02:11:06.230Z,971.11
2018-08-09T02:12:06.229Z,971.10
2018-08-09T02:13:06.229Z,971.12
2018-08-09T02:14:06.241Z,971.11
2018-08-09T02:15:06.223Z,971.12
2018-08-09T02:16:06.222Z,971.15
2018-08-09T02:17:06.218Z,971.17
2018-08-09T02:18:06.216Z,971.20
2018-08-09T02:19:06.216Z,971.19
2018-08-09T02:20:06.222Z,971.19
2018-08-09T02:21:06.211Z,971.22
2018-08-09T02:22:06.209Z,971.20
2018-08-09T02:23:06.209Z,971.22
2018-08-09T02:24:06.208Z,971.19
2018-08-09T02:25:06.207Z,971.25
2018-08-09T02:26:06.202Z,971.24
2018-08-09T02:27:06.200Z,971.28
2018-08-09T02:28:06.198Z,971.25
2018-08-09T02:29:06.199Z,971.29
2018-08-09T02:30:06.199Z,971.20
2018-08-09T02:31:06.198Z,971.23
2018-08-09T02:32:06.191Z,971.24
2018-08-09T02:33:06.194Z,971.22
2018-08-09T02:34:06.185Z,971.25
2018-08-09T02:35:06.187Z,971.22
2018-08-09T02:36:06.184Z,971.25
2018-08-09T02:37:06.184Z,971.22
2018-08-09T02:38:06.182Z,971.22
2018-08-09T02:39:06.178Z,971.23
2018-08-09T02:40:06.184Z,971.20
2018-08-09T02:41:06.173Z,971.16
2018-08-09T02:42:06.221Z,971.13
2018-08-09T02:43:06.169Z,971.16
2018-08-09T02:44:06.172Z,971.14
2018-08-09T02:45:06.164Z,971.12
2018-08-09T02:46:06.163Z,971.15
2018-08-09T02:47:06.166Z,971.15
2018-08-09T02:48:06.184Z,971.11
2018-08-09T02:49:06.161Z,971.10
2018-08-09T02:50:06.160Z,971.10
2018-08-09T02:51:06.160Z,971.12
2018-08-09T02:52:06.152Z,971.06
2018-08-09T02:53:06.148Z,971.07
2018-08-09T02:54:06.148Z,971.07
2018-08-09T02:55:06.147Z,971.05
2018-08-09T02:56:06.149Z,971.06
2018-08-09T02:57:06.146Z,971.03
2018-08-09T02:58:06.145Z,971.02
2018-08-09T02:59:06.139Z,970.98
2018-08-09T03:00:06.148Z,971.01
2018-08-09T03:01:06.134Z,971.00
2018-08-09T03:02:06.132Z,970.99
2018-08-09T03:03:06.132Z,971.00
2018-08-09T03:04:06.136Z,970.98
2018-08-09T03:05:06.126Z,970.90
2018-08-09T03:06:06.122Z,970.87
2018-08-09T03:07:06.121Z,970.91
2018-08-09T03:08:06.122Z,970.82
2018-08-09T03:09:06.121Z,970.83
2018-08-09T03:10:06.116Z,970.84
2018-08-09T03:11:06.114Z,970.78
2018-08-09T03:12:06.113Z,970.84
2018-08-09T03:13:06.114Z,970.80
2018-08-09T03:14:06.107Z,970.79
2018-08-09T03:15:06.104Z,970.80
2018-08-09T03:16:06.104Z,970.82
2018-08-09T03:17:06.099Z,970.83
2018-08-09T03:18:06.105Z,970.81
2018-08-09T03:19:06.096Z,970.85
2018-08-09T03:20:06.095Z,970.83
2018-08-09T03:21:06.098Z,970.80
2018-08-09T03:22:06.094Z,970.81
2018-08-09T03:23:06.088Z,970.81
2018-08-09T03:24:06.088Z,970.82
2018-08-09T03:25:06.084Z,970.80
2018-08-09T03:26:06.083Z,970.79
2018-08-09T03:27:06.079Z,970.77
2018-08-09T03:28:06.083Z,970.76
2018-08-09T03:29:06.080Z,970.73
2018-08-09T03:30:06.077Z,970.74
2018-08-09T03:31:06.076Z,970.74
2018-08-09T03:32:06.071Z,970.71
2018-08-09T03:33:06.068Z,970.76
2018-08-09T03:34:06.066Z,970.70
2018-08-09T03:35:06.062Z,970.71
2018-08-09T03:36:06.064Z,970.72
2018-08-09T03:37:06.063Z,970.70
2018-08-09T03:38:06.057Z,970.67
2018-08-09T03:39:06.055Z,970.69
2018-08-09T03:40:06.057Z,970.70
2018-08-09T03:41:06.053Z,970.73
2018-08-09T03:42:06.055Z,970.75
2018-08-09T03:43:06.045Z,970.76
2018-08-09T03:44:06.048Z,970.79
2018-08-09T03:45:06.043Z,970.79
2018-08-09T03:46:06.041Z,970.80
2018-08-09T03:47:06.037Z,970.79
2018-08-09T03:48:06.038Z,970.78
2018-08-09T03:49:06.034Z,970.82
2018-08-09T03:50:06.063Z,970.81
2018-08-09T03:51:06.037Z,970.88
2018-08-09T03:52:06.025Z,970.93
2018-08-09T03:53:06.026Z,970.90
2018-08-09T03:54:06.022Z,970.90
2018-08-09T03:55:06.019Z,970.89
2018-08-09T03:56:06.020Z,970.91
2018-08-09T03:57:06.025Z,970.91
2018-08-09T03:58:06.111Z,970.96
2018-08-09T03:59:06.011Z,970.96
2018-08-09T04:00:06.010Z,971.02
2018-08-09T04:01:06.006Z,971.02
2018-08-09T04:02:06.010Z,971.05
2018-08-09T04:03:06.001Z,971.05
2018-08-09T04:04:06.005Z,971.07
2018-08-09T04:05:05.995Z,971.03
2018-08-09T04:06:05.993Z,971.06
2018-08-09T04:07:05.997Z,971.05
2018-08-09T04:08:05.991Z,970.98
2018-08-09T04:09:05.986Z,970.99
2018-08-09T04:10:05.989Z,970.99
2018-08-09T04:11:05.983Z,970.94
2018-08-09T04:12:06.003Z,970.99
2018-08-09T04:13:05.983Z,970.98
2018-08-09T04:14:05.978Z,970.95
2018-08-09T04:15:05.974Z,970.94
2018-08-09T04:16:05.976Z,970.97
2018-08-09T04:17:05.971Z,970.96
2018-08-09T04:18:05.967Z,970.96
2018-08-09T04:19:05.965Z,970.95
2018-08-09T04:20:05.965Z,970.99
2018-08-09T04:21:05.959Z,971.02
2018-08-09T04:22:05.957Z,970.99
2018-08-09T04:23:05.954Z,971.04
2018-08-09T04:24:05.952Z,971.01
2018-08-09T04:25:05.953Z,971.03
2018-08-09T04:26:05.948Z,971.04
2018-08-09T04:27:05.946Z,971.08
2018-08-09T04:28:05.947Z,971.06
2018-08-09T04:29:05.946Z,971.09
2018-08-09T04:30:05.940Z,971.12
2018-08-09T04:31:05.936Z,971.11
2018-08-09T04:32:05.934Z,971.07
2018-08-09T04:33:05.941Z,971.08
2018-08-09T04:34:05.944Z,971.06
2018-08-09T04:35:05.929Z,971.02
2018-08-09T04:36:05.931Z,971.08
2018-08-09T04:37:05.928Z,971.07
2018-08-09T04:38:06.007Z,971.06
2018-08-09T04:39:05.918Z,971.04
2018-08-09T04:40:05.918Z,971.03
2018-08-09T04:41:05.913Z,971.10
2018-08-09T04:42:05.910Z,971.07
2018-08-09T04:43:05.912Z,971.04
2018-08-09T04:44:05.907Z,971.06
2018-08-09T04:45:05.908Z,971.05
2018-08-09T04:46:05.901Z,971.10
2018-08-09T04:47:05.904Z,971.12
2018-08-09T04:48:05.899Z,971.11
2018-08-09T04:49:05.895Z,971.08
2018-08-09T04:50:05.897Z,971.10
2018-08-09T04:51:05.890Z,971.10
2018-08-09T04:52:05.914Z,971.15
2018-08-09T04:53:05.886Z,971.11
2018-08-09T04:54:05.889Z,971.07
2018-08-09T04:55:05.887Z,971.07
2018-08-09T04:56:05.883Z,971.03
2018-08-09T04:57:05.886Z,971.05
2018-08-09T04:58:05.884Z,971.04
2018-08-09T04:59:05.877Z,971.04
2018-08-09T05:00:05.878Z,971.08
2018-08-09T05:01:05.878Z,971.09
2018-08-09T05:02:05.878Z,971.11
2018-08-09T05:03:05.876Z,971.13
2018-08-09T05:04:05.876Z,971.16
2018-08-09T05:05:05.873Z,971.12
2018-08-09T05:06:05.873Z,971.14
2018-08-09T05:07:05.873Z,971.11
2018-08-09T05:08:05.874Z,971.08
2018-08-09T05:09:05.881Z,971.12
2018-08-09T05:10:05.874Z,971.10
2018-08-09T05:11:05.895Z,971.06
2018-08-09T05:12:05.896Z,971.06
2018-08-09T05:13:05.898Z,971.02
2018-08-09T05:14:05.878Z,971.02
2018-08-09T05:15:05.879Z,970.99
2018-08-09T05:16:05.880Z,970.95
2018-08-09T05:17:05.884Z,970.94
2018-08-09T05:18:05.880Z,970.96
2018-08-09T05:19:05.878Z,970.92
2018-08-09T05:20:05.882Z,970.95
2018-08-09T05:21:05.878Z,970.99
2018-08-09T05:22:05.887Z,970.96
2018-08-09T05:23:05.908Z,970.94
2018-08-09T05:24:05.881Z,970.92
2018-08-09T05:25:05.888Z,970.91
2018-08-09T05:26:05.881Z,970.92
2018-08-09T05:27:05.879Z,970.98
2018-08-09T05:28:05.882Z,970.97
2018-08-09T05:29:05.881Z,970.97
2018-08-09T05:30:05.892Z,970.97
2018-08-09T05:31:05.885Z,970.97
2018-08-09T05:32:05.883Z,970.93
2018-08-09T05:33:05.889Z,970.94
2018-08-09T05:34:05.897Z,970.91
2018-08-09T05:35:05.882Z,970.86
2018-08-09T05:36:05.890Z,970.82
2018-08-09T05:37:05.889Z,970.83
2018-08-09T05:38:05.883Z,970.79
2018-08-09T05:39:05.884Z,970.80
2018-08-09T05:40:05.883Z,970.78
2018-08-09T05:41:05.881Z,970.80
2018-08-09T05:42:05.884Z,970.77
2018-08-09T05:43:05.884Z,970.75
2018-08-09T05:44:05.887Z,970.77
2018-08-09T05:45:05.884Z,970.80
2018-08-09T05:46:05.893Z,970.76
2018-08-09T05:47:05.884Z,970.79
2018-08-09T05:48:05.886Z,970.76
2018-08-09T05:49:05.888Z,970.76
2018-08-09T05:50:05.885Z,970.75
2018-08-09T05:51:05.883Z,970.78
2018-08-09T05:52:05.884Z,970.77
2018-08-09T05:53:05.889Z,970.80
2018-08-09T05:54:05.887Z,970.83
2018-08-09T05:55:05.882Z,970.81
2018-08-09T05:56:05.887Z,970.85
2018-08-09T05:57:05.882Z,970.86
2018-08-09T05:58:05.883Z,970.87
2018-08-09T05:59:05.884Z,970.84
2018-08-09T06:00:05.884Z,970.82
2018-08-09T06:01:05.881Z,970.80
2018-08-09T06:02:05.885Z,970.82
2018-08-09T06:03:05.885Z,970.78
2018-08-09T06:04:05.882Z,970.78
2018-08-09T06:05:05.881Z,970.80
2018-08-09T06:06:05.886Z,970.81
2018-08-09T06:07:05.883Z,970.86
2018-08-09T06:08:05.885Z,970.82
2018-08-09T06:09:05.881Z,970.83
2018-08-09T06:10:05.883Z,970.85
2018-08-09T06:11:05.881Z,970.87
2018-08-09T06:12:05.883Z,970.88
2018-08-09T06:13:05.883Z,970.89
2018-08-09T06:14:05.884Z,970.89
2018-08-09T06:15:05.890Z,970.83
2018-08-09T06:16:05.880Z,970.86
2018-08-09T06:17:05.882Z,970.84
2018-08-09T06:18:05.878Z,970.84
2018-08-09T06:19:05.885Z,970.82
2018-08-09T06:20:05.884Z,970.81
2018-08-09T06:21:05.882Z,970.82
2018-08-09T06:22:05.878Z,970.77
2018-08-09T06:23:05.879Z,970.76
2018-08-09T06:24:05.879Z,970.76
2018-08-09T06:25:05.880Z,970.76
2018-08-09T06:26:05.880Z,970.76
2018-08-09T06:27:05.879Z,970.77
2018-08-09T06:28:05.880Z,970.78
2018-08-09T06:29:05.884Z,970.72
2018-08-09T06:30:05.882Z,970.71
2018-08-09T06:31:05.881Z,970.68
2018-08-09T06:32:05.881Z,970.67
2018-08-09T06:33:05.885Z,970.66
2018-08-09T06:34:05.883Z,970.63
2018-08-09T06:35:05.883Z,970.65
2018-08-09T06:36:05.884Z,970.69
2018-08-09T06:37:05.881Z,970.67
2018-08-09T06:38:05.883Z,970.70
2018-08-09T06:39:05.886Z,970.64
2018-08-09T06:40:05.888Z,970.65
2018-08-09T06:41:05.885Z,970.65
2018-08-09T06:42:05.884Z,970.61
2018-08-09T06:43:05.884Z,970.61
2018-08-09T06:44:05.886Z,970.61
2018-08-09T06:45:05.887Z,970.59
2018-08-09T06:46:05.887Z,970.61
2018-08-09T06:47:05.887Z,970.62
2018-08-09T06:48:05.893Z,970.61
2018-08-09T06:49:05.892Z,970.61
2018-08-09T06:50:05.889Z,970.58
2018-08-09T06:51:05.890Z,970.60
2018-08-09T06:52:05.898Z,970.55
2018-08-09T06:53:05.892Z,970.50
2018-08-09T06:54:05.891Z,970.50
2018-08-09T06:55:05.895Z,970.49
2018-08-09T06:56:05.901Z,970.50
2018-08-09T06:57:05.898Z,970.49
2018-08-09T06:58:05.900Z,970.47
2018-08-09T06:59:05.896Z,970.48
2018-08-09T07:00:05.897Z,970.49
2018-08-09T07:01:05.902Z,970.48
2018-08-09T07:02:05.898Z,970.45
2018-08-09T07:03:05.901Z,970.47
2018-08-09T07:04:05.905Z,970.41
2018-08-09T07:05:05.901Z,970.42
2018-08-09T07:06:05.902Z,970.41
2018-08-09T07:07:05.973Z,970.37
2018-08-09T07:08:05.905Z,970.31
2018-08-09T07:09:05.905Z,970.31
2018-08-09T07:10:05.909Z,970.32
2018-08-09T07:11:05.909Z,970.34
2018-08-09T07:12:05.908Z,970.25
2018-08-09T07:13:05.909Z,970.25
2018-08-09T07:14:05.912Z,970.27
2018-08-09T07:15:05.918Z,970.27
2018-08-09T07:16:05.916Z,970.23
2018-08-09T07:17:05.913Z,970.22
2018-08-09T07:18:05.923Z,970.23
2018-08-09T07:19:05.919Z,970.18
2018-08-09T07:20:05.920Z,970.19
2018-08-09T07:21:05.921Z,970.19
2018-08-09T07:22:05.922Z,970.17
2018-08-09T07:23:05.924Z,970.18
2018-08-09T07:24:05.930Z,970.22
2018-08-09T07:25:05.925Z,970.22
2018-08-09T07:26:05.932Z,970.23
2018-08-09T07:27:05.930Z,970.22
2018-08-09T07:28:05.931Z,970.20
2018-08-09T07:29:05.936Z,970.16
2018-08-09T07:30:05.938Z,970.15
2018-08-09T07:31:05.936Z,970.12
2018-08-09T07:32:05.943Z,970.12
2018-08-09T07:33:05.942Z,970.14
2018-08-09T07:34:05.940Z,970.14
2018-08-09T07:35:05.942Z,970.13
2018-08-09T07:36:05.945Z,970.09
2018-08-09T07:37:05.945Z,970.06
2018-08-09T07:38:05.950Z,970.09
2018-08-09T07:39:05.949Z,970.05
2018-08-09T07:40:05.950Z,970.04
2018-08-09T07:41:05.953Z,970.04
2018-08-09T07:42:05.955Z,970.04
2018-08-09T07:43:05.957Z,970.08
2018-08-09T07:44:05.959Z,970.07
2018-08-09T07:45:05.959Z,970.05
2018-08-09T07:46:05.968Z,970.05
2018-08-09T07:47:05.963Z,970.02
2018-08-09T07:48:05.968Z,970.04
2018-08-09T07:49:05.975Z,970.06
2018-08-09T07:50:05.969Z,970.02
2018-08-09T07:51:05.972Z,970.04
2018-08-09T07:52:05.975Z,970.02
2018-08-09T07:53:05.975Z,970.02
2018-08-09T07:54:05.986Z,970.03
2018-08-09T07:55:05.987Z,970.04
2018-08-09T07:56:05.984Z,970.05
2018-08-09T07:57:06.024Z,970.09
2018-08-09T07:58:05.987Z,970.07
2018-08-09T07:59:05.995Z,970.08
2018-08-09T08:00:05.999Z,970.10
2018-08-09T08:01:05.997Z,970.08
2018-08-09T08:02:05.996Z,970.09
2018-08-09T08:03:05.999Z,970.09
2018-08-09T08:04:06.000Z,970.09
2018-08-09T08:05:06.003Z,970.09
2018-08-09T08:06:06.047Z,970.08
2018-08-09T08:07:06.010Z,970.08
2018-08-09T08:08:06.015Z,970.07
2018-08-09T08:09:06.019Z,970.06
2018-08-09T08:10:06.026Z,970.01
2018-08-09T08:11:06.024Z,970.04
2018-08-09T08:12:06.025Z,970.00
2018-08-09T08:13:06.029Z,970.01
2018-08-09T08:14:06.033Z,970.03
2018-08-09T08:15:06.057Z,970.00
2018-08-09T08:16:06.037Z,969.95
2018-08-09T08:17:06.040Z,969.94
2018-08-09T08:18:06.053Z,969.91
2018-08-09T08:19:06.042Z,969.92
2018-08-09T08:20:06.048Z,969.88
2018-08-09T08:21:06.047Z,969.92
2018-08-09T08:22:06.054Z,969.87
2018-08-09T08:23:06.055Z,969.87
2018-08-09T08:24:06.061Z,969.89
2018-08-09T08:25:06.060Z,969.85
2018-08-09T08:26:06.064Z,969.84
2018-08-09T08:27:06.065Z,969.85
2018-08-09T08:28:06.069Z,969.86
2018-08-09T08:29:06.072Z,969.85
2018-08-09T08:30:06.078Z,969.85
2018-08-09T08:31:06.078Z,969.81
2018-08-09T08:32:06.082Z,969.80
2018-08-09T08:33:06.082Z,969.81
2018-08-09T08:34:06.086Z,969.75
2018-08-09T08:35:06.093Z,969.79
2018-08-09T08:36:06.100Z,969.74
2018-08-09T08:37:06.099Z,969.71
2018-08-09T08:38:06.099Z,969.71
2018-08-09T08:39:06.105Z,969.67
2018-08-09T08:40:06.110Z,969.64
2018-08-09T08:41:06.114Z,969.59
2018-08-09T08:42:06.113Z,969.59
2018-08-09T08:43:06.117Z,969.57
2018-08-09T08:44:06.118Z,969.56
2018-08-09T08:45:06.121Z,969.58
2018-08-09T08:46:06.124Z,969.59
2018-08-09T08:47:06.129Z,969.59
2018-08-09T08:48:06.132Z,969.61
2018-08-09T08:49:06.134Z,969.60
2018-08-09T08:50:06.141Z,969.58
2018-08-09T08:51:06.141Z,969.57
2018-08-09T08:52:06.147Z,969.56
2018-08-09T08:53:06.164Z,969.51
2018-08-09T08:54:06.153Z,969.50
2018-08-09T08:55:06.210Z,969.50
2018-08-09T08:56:06.160Z,969.45
2018-08-09T08:57:06.163Z,969.46
2018-08-09T08:58:06.168Z,969.44
2018-08-09T08:59:06.174Z,969.46
2018-08-09T09:00:06.175Z,969.46
2018-08-09T09:01:06.252Z,969.43
2018-08-09T09:02:06.181Z,969.42
2018-08-09T09:03:06.192Z,969.40
2018-08-09T09:04:06.190Z,969.43
2018-08-09T09:05:06.298Z,969.40
2018-08-09T09:06:06.270Z,969.39
2018-08-09T09:07:06.266Z,969.37
2018-08-09T09:08:06.208Z,969.32
2018-08-09T09:09:06.204Z,969.28
2018-08-09T09:10:06.210Z,969.27
2018-08-09T09:11:06.212Z,969.29
2018-08-09T09:12:06.223Z,969.28
2018-08-09T09:13:06.223Z,969.24
2018-08-09T09:14:06.223Z,969.25
2018-08-09T09:15:06.230Z,969.26
2018-08-09T09:16:06.233Z,969.25
2018-08-09T09:17:06.235Z,969.21
2018-08-09T09:18:06.242Z,969.19
2018-08-09T09:19:06.292Z,969.15
2018-08-09T09:20:06.246Z,969.18
2018-08-09T09:21:06.250Z,969.16
2018-08-09T09:22:06.260Z,969.22
2018-08-09T09:23:06.257Z,969.27
2018-08-09T09:24:06.263Z,969.29
2018-08-09T09:25:06.265Z,969.29
2018-08-09T09:26:06.271Z,969.30
2018-08-09T09:27:06.400Z,969.32
2018-08-09T09:28:06.279Z,969.31
2018-08-09T09:29:06.280Z,969.33
2018-08-09T09:30:06.285Z,969.31
2018-08-09T09:31:06.293Z,969.31
2018-08-09T09:32:06.295Z,969.28
2018-08-09T09:33:06.300Z,969.23
2018-08-09T09:34:06.301Z,969.22
2018-08-09T09:35:06.365Z,969.18
2018-08-09T09:36:06.313Z,969.16
2018-08-09T09:37:06.313Z,969.15
2018-08-09T09:38:06.318Z,969.17
2018-08-09T09:39:06.323Z,969.12
2018-08-09T09:40:06.327Z,969.16
2018-08-09T09:41:06.335Z,969.23
2018-08-09T09:42:06.334Z,969.26
2018-08-09T09:43:06.338Z,969.25
2018-08-09T09:44:06.343Z,969.25
2018-08-09T09:45:06.350Z,969.22
2018-08-09T09:46:06.353Z,969.21
2018-08-09T09:47:06.355Z,969.18
2018-08-09T09:48:06.359Z,969.19
2018-08-09T09:49:06.362Z,969.20
2018-08-09T09:50:06.370Z,969.17
2018-08-09T09:51:06.371Z,969.18
2018-08-09T09:52:06.374Z,969.13
2018-08-09T09:53:06.380Z,969.12
2018-08-09T09:54:06.392Z,969.10
2018-08-09T09:55:06.387Z,969.10
2018-08-09T09:56:06.437Z,969.06
2018-08-09T09:57:06.395Z,969.03
2018-08-09T09:58:06.407Z,969.00
2018-08-09T09:59:06.411Z,969.01
2018-08-09T10:00:06.409Z,969.03
2018-08-09T10:01:06.413Z,969.02
2018-08-09T10:02:06.421Z,969.08
2018-08-09T10:03:06.420Z,969.05
2018-08-09T10:04:06.425Z,969.03
2018-08-09T10:05:06.428Z,969.04
2018-08-09T10:06:06.434Z,969.00
2018-08-09T10:07:06.464Z,969.04
2018-08-09T10:08:06.442Z,969.05
2018-08-09T10:09:06.447Z,969.02
2018-08-09T10:10:06.457Z,969.02
2018-08-09T10:11:06.458Z,968.97
2018-08-09T10:12:06.460Z,968.94
2018-08-09T10:13:06.467Z,969.01
2018-08-09T10:14:06.473Z,968.99
2018-08-09T10:15:06.479Z,968.98
2018-08-09T10:16:06.476Z,969.02
2018-08-09T10:17:06.481Z,968.95
2018-08-09T10:18:06.487Z,969.00
2018-08-09T10:19:06.490Z,969.00
2018-08-09T10:20:06.498Z,969.03
2018-08-09T10:21:06.498Z,969.03
2018-08-09T10:22:06.507Z,968.97
2018-08-09T10:23:06.511Z,969.01
2018-08-09T10:24:06.513Z,969.03
2018-08-09T10:25:06.516Z,969.02
2018-08-09T10:26:06.521Z,969.03
2018-08-09T10:27:06.528Z,969.03
2018-08-09T10:28:06.531Z,969.00
2018-08-09T10:29:06.540Z,969.02
2018-08-09T10:30:06.544Z,969.02
2018-08-09T10:31:06.548Z,968.99
2018-08-09T10:32:06.548Z,969.00
2018-08-09T10:33:06.554Z,969.00
2018-08-09T10:34:06.558Z,968.98
2018-08-09T10:35:06.561Z,968.96
2018-08-09T10:36:06.576Z,968.98
2018-08-09T10:37:06.572Z,968.98
2018-08-09T10:38:06.578Z,968.93
2018-08-09T10:39:06.587Z,968.99
2018-08-09T10:40:06.587Z,969.00
2018-08-09T10:41:06.592Z,968.99
2018-08-09T10:42:06.597Z,969.03
2018-08-09T10:43:06.602Z,969.03
2018-08-09T10:44:06.610Z,969.04
2018-08-09T10:45:06.608Z,969.02
2018-08-09T10:46:06.615Z,969.09
2018-08-09T10:47:06.621Z,969.09
2018-08-09T10:48:06.624Z,969.13
2018-08-09T10:49:06.677Z,969.20
2018-08-09T10:50:06.633Z,969.22
2018-08-09T10:51:06.641Z,969.29
2018-08-09T10:52:06.645Z,969.29
2018-08-09T10:53:06.649Z,969.39
2018-08-09T10:54:06.655Z,969.33
2018-08-09T10:55:06.655Z,969.40
2018-08-09T10:56:06.664Z,969.40
2018-08-09T10:57:06.663Z,969.42
2018-08-09T10:58:06.670Z,969.48
2018-08-09T10:59:06.673Z,969.51
2018-08-09T11:00:06.681Z,969.43
2018-08-09T11:01:06.683Z,969.52
2018-08-09T11:02:06.689Z,969.48
2018-08-09T11:03:06.698Z,969.46
2018-08-09T11:04:06.703Z,969.47
2018-08-09T11:05:06.703Z,969.56
2018-08-09T11:06:06.707Z,969.60
2018-08-09T11:07:06.712Z,969.64
2018-08-09T11:08:06.718Z,969.74
2018-08-09T11:09:06.726Z,969.81
2018-08-09T11:10:06.729Z,969.75
2018-08-09T11:11:06.737Z,969.79
2018-08-09T11:12:06.738Z,969.71
2018-08-09T11:13:06.743Z,969.86
2018-08-09T11:14:06.748Z,969.91
2018-08-09T11:15:06.797Z,969.76
2018-08-09T11:16:06.759Z,969.77
2018-08-09T11:17:06.771Z,969.77
2018-08-09T11:18:06.769Z,969.72
2018-08-09T11:19:06.774Z,969.66
2018-08-09T11:20:06.777Z,969.68
2018-08-09T11:21:06.786Z,969.73
2018-08-09T11:22:06.791Z,969.64
2018-08-09T11:23:06.794Z,969.69
2018-08-09T11:24:06.804Z,969.68
2018-08-09T11:25:06.803Z,969.74
2018-08-09T11:26:06.810Z,969.73
2018-08-09T11:27:06.812Z,969.76
2018-08-09T11:28:06.822Z,969.80
2018-08-09T11:29:06.935Z,969.72
2018-08-09T11:30:06.827Z,969.84
2018-08-09T11:31:06.946Z,969.83
2018-08-09T11:32:06.839Z,969.82
2018-08-09T11:33:06.846Z,969.82
2018-08-09T11:34:06.857Z,969.87
2018-08-09T11:35:06.854Z,969.80
2018-08-09T11:36:06.858Z,969.79
2018-08-09T11:37:06.862Z,969.76
2018-08-09T11:38:06.869Z,969.89
2018-08-09T11:39:06.872Z,969.79
2018-08-09T11:40:06.878Z,969.81
2018-08-09T11:41:06.886Z,969.78
2018-08-09T11:42:06.899Z,969.89
2018-08-09T11:43:06.953Z,969.88
2018-08-09T11:44:06.905Z,969.86
2018-08-09T11:45:06.907Z,969.92
2018-08-09T11:46:06.911Z,969.97
2018-08-09T11:47:06.914Z,969.96
2018-08-09T11:48:06.920Z,970.00
2018-08-09T11:49:06.955Z,969.88
2018-08-09T11:50:06.933Z,970.00
2018-08-09T11:51:06.939Z,970.08
2018-08-09T11:52:06.944Z,969.95
2018-08-09T11:53:06.947Z,970.04
2018-08-09T11:54:06.953Z,970.09
2018-08-09T11:55:06.961Z,970.04
2018-08-09T11:56:07.021Z,970.10
2018-08-09T11:57:07.022Z,969.95
2018-08-09T11:58:06.973Z,970.09
2018-08-09T11:59:06.983Z,970.04
2018-08-09T12:00:06.986Z,970.09
2018-08-09T12:01:06.994Z,970.14
2018-08-09T12:02:06.996Z,970.17
2018-08-09T12:03:07.003Z,970.16
2018-08-09T12:04:07.011Z,970.19
2018-08-09T12:05:07.013Z,970.20
2018-08-09T12:06:07.023Z,970.20
2018-08-09T12:07:07.051Z,970.14
2018-08-09T12:08:07.035Z,970.20
2018-08-09T12:09:07.034Z,970.25
2018-08-09T12:10:07.041Z,970.26
2018-08-09T12:11:07.049Z,970.31
2018-08-09T12:12:07.058Z,970.33
2018-08-09T12:13:07.063Z,970.25
2018-08-09T12:14:07.064Z,970.34
2018-08-09T12:15:07.113Z,970.35
2018-08-09T12:16:07.080Z,970.41
2018-08-09T12:17:07.083Z,970.41
2018-08-09T12:18:07.103Z,970.43
2018-08-09T12:19:07.092Z,970.52
2018-08-09T12:20:07.100Z,970.56
2018-08-09T12:21:07.179Z,970.48
2018-08-09T12:22:07.150Z,970.40
2018-08-09T12:23:07.119Z,970.46
2018-08-09T12:24:07.121Z,970.31
2018-08-09T12:25:07.130Z,970.30
2018-08-09T12:26:07.138Z,970.43
2018-08-09T12:27:07.140Z,970.42
2018-08-09T12:28:07.142Z,970.44